25km RED LANMANTEN le 10/06/2018

Recherche par Dossard : par Nom : par Club :

Place Dossard Nom Prenom Cat. Pl. Cat. Temps Club Sexe
1 21 ABATORD LOUIS-MICHEL V1 1 02:18:13 TCHIMBe RAID M
2 59 PONCHATEAU JEAN PIERRE V1 2 02:22:17 MANIKOU M
3 147 SAINT ROSE FRANCHINE ALEX V3 1 02:24:00 ATHLeTIC CLUB SALEIEN M
4 95 ARCADE BAPTISTE SE 1 02:29:09 TEAM SOUFFLE ET ENERGY M
5 94 COCHEREAU OSWALD V1 3 02:29:09 TEAM SOUFFLE ET ENERGY M
6 136 SIBADO ALBERT V2 1 02:29:45 M
7 112 CAPITAINE PATRICE V1 4 02:30:41 US ROBERT M
8 125 BAH ALPHA V1 5 02:34:03 TRIATHLON 91 M
9 122 MAREM AUGUSTIN V2 2 02:35:32 M
10 15 GARCIA FRANCOIS SE 2 02:39:12 RSMA M
11 73 VERRES ALEXANDRE V2 3 02:43:42 STT M
12 37 COUTY ER V1 6 02:46:01 M
13 11 NAZAROV BORIS SE 3 02:52:17 ATHLECTIC CLUB SALEEN M
14 18 SALVADOR EDDY V1 7 02:53:54 TLT972/CLUB MANIKOU M
15 55 LEROY AURORE SE 1 02:55:30 F
16 39 COURDe ReMI SE 4 02:55:31 TEAM PREFONTAINE M
17 138 DORIZON JERRY V1 8 02:57:05 MANIKOU M
18 22 BRACO GRATIEN V2 4 02:57:31 MANIKOU M
19 45 ROUSSEAU LOUIS-PHILIPPE SE 5 02:57:31 M
20 64 VALETTE BERNARD V3 2 02:57:37 MANIKOU M
21 57 MICHERON GERALDINE V1 1 02:57:44 MANIKOU F
22 126 PATARACH JOHAN SE 6 02:59:05 M
23 101 ROUBLIQUE ELISABETH V1 2 03:00:07 TCHIMBE RAID F
24 108 COURTOIS JEREMY SE 7 03:01:03 RSMAM M
25 69 MONTHEARD DAVID V1 9 03:03:32 M
26 47 DELECROIX FLORIAN SE 8 03:03:35 M
27 72 DESSERPRIT PASCALE V2 1 03:04:39 MAIRIE SPORTIVE DE FORT DE FRANCE F
28 115 BESSALA-SAMOUT LIONEL SE 9 03:04:46 M
29 83 BRIEU TELLUS V2 5 03:05:18 M
30 104 HIEZ FABIEN V1 10 03:05:23 DEDETTE ET CIE M
31 102 EMONIDES MICHEL V2 6 03:05:35 TCHIMBE RAID M
32 53 ALLAIN CLAUDE V1 11 03:06:36 M
33 127 COURANT GUY V3 3 03:08:20 CLUB MANIKOU M
34 48 DELVINQUIERE ANTOINE SE 10 03:09:28 M
35 76 DEROUET JEAN-LUC V1 12 03:09:34 RSMA-M M
36 71 GRANCOIN ANTHONY SE 11 03:09:34 RSMA-M M
37 109 MACABRE CAMILLE V2 7 03:10:21 FR DU MORNE PITAULT M
38 110 FORGARD GERMAIN V2 8 03:10:22 FR DU MORNE PITAULT M
39 77 BOUISSAGUET UGO SE 12 03:10:34 M
40 24 KERMOISON ALEX V2 9 03:11:58 AMCF M
41 121 RETORY DENIS V1 13 03:12:38 TCHIMBE RAID M
42 137 LOY CeDRIC SE 13 03:15:43 CLUB TCHIMBE RAID M
43 35 VALVERDE PHILIPPE V1 14 03:17:08 TCHIMBe RAID M
44 38 MEDDOUR SALAH V1 15 03:17:49 33 RIMA M
45 148 NERET RONY V1 16 03:21:46 M
46 5 LUCHEL JEAN-SEBASTIEN SE 14 03:22:02 M
47 62 LASNE FREDERIC SE 15 03:22:04 CSLG TRAIL TRINITe M
48 75 LUCIDARME ERIC V2 10 03:22:16 SOGEA MARTINIQUE M
49 43 ROCHE JEAN-MARC V1 17 03:22:35 ReNOVATION M
50 30 GASMI MEHDI SE 16 03:23:05 33 ° RIMA M
51 41 ANIN WILLIAM SE 17 03:23:05 SAM HORIZON 2000 M
52 81 MONTOUT CHRISTINE V1 3 03:23:59 F
53 116 STEFANETTO GEOFFREY SE 18 03:24:37 M
54 105 RALAISOMAY NATACHOUILLE SE 2 03:25:00 SQUALE CLUB F
55 6 TESSIER LILIAN V1 18 03:25:14 M
56 13 GOBBI BENOÎT SE 19 03:26:10 M
57 134 TEVENET-BAH SANDRINE V1 4 03:27:07 AARSMAM F
58 26 CURFS HUBERT V3 4 03:27:12 TCHIMBeRAID M
59 144 CAYOL EDDY V1 19 03:27:15 M
60 143 CABARRUS MARIO V1 20 03:27:15 M
61 89 HENRY LAURENT V2 11 03:29:08 MANIKOU M
62 86 LORENZINI PHILIPPE V3 5 03:29:08 NEANT M
63 119 PANCALDI MARIE-GEORGES V2 2 03:29:12 MANIKOU F
64 133 RAVIN CATHIA V1 5 03:29:12 F
65 120 PAVILLA PATRICIA V1 6 03:31:30 F
66 88 BARBECOT LORENZONI FABIEN SE 20 03:31:30 CTCA M
67 130 DELPEU VINCENT V1 21 03:32:03 M
68 50 PEDROT GAETAN SE 21 03:34:11 M
69 23 VETRAL ERIC V2 12 03:35:10 CLUB MANIKOU M
70 68 LEFEBVRE LAURENT SE 22 03:35:37 M
71 4 EUSTACHE AUDREY SE 3 03:35:39 F
72 100 PLAISSY STEPHANE V1 22 03:35:39 MANIKOU M
73 60 HUMBERT PASCAL V1 23 03:35:45 M
74 12 RAGOT ERICK V1 24 03:35:49 M
75 84 GUILLORIT AGNES V2 3 03:36:37 TEAM SOUFFLE ET ENERGY F
76 87 FOLLIET ELSA SE 4 03:38:32 SQUALE CLUB F
77 17 ADRIVON HAROLD V1 25 03:38:40 M
78 91 ZAMORD CEDRIC SE 23 03:39:07 M
79 97 BRIEU JULIEN V1 26 03:41:17 M
80 140 CORRADINI NICOLAS SE 24 03:42:50 M
81 67 BOULANGER JEAN-CHRISTOPHE SE 25 03:43:23 EFFORT MORNE-VERT M
82 103 FREDOC MARCEL V1 27 03:45:01 M
83 124 PHULPIN NICOLAS V1 28 03:45:18 CSA TRAIL M
84 82 ABBADIE JeReMIE SE 26 03:45:39 M
85 52 BERNARD JEROME SE 27 03:45:42 M
86 106 MALHERBE VINCENT V1 29 03:45:42 SQUALE CLUB M
87 20 PROSPA ADELINE V1 7 03:46:58 MANIKOU-TLT972 F
88 10 MERIAN NICOLAS V1 30 03:49:22 M
89 14 GHESQUIERE JEREMIE V1 31 03:51:24 M
90 129 ROY-CAMILLE HENRY-MICHEL V1 32 03:52:07 M
91 141 RANNOU CeDRIC V1 33 03:56:01 M
92 36 CASATI PATRICK V2 13 03:57:00 MANIKOU M
93 40 SAINT-MARC YVELLE V1 8 03:58:25 TCHIMBE RAID F
94 58 GEKIERE CYRIL V1 34 03:59:25 MANIKOU M
95 80 CAVALIER SOPHIE SE 5 04:00:05 F
96 28 PIGET PHILIPPE V3 6 04:00:46 AMCF M
97 46 HAUSTANT THIERRY V2 14 04:01:07 M
98 25 REGIS MATTHIEU SE 28 04:01:39 M
99 85 GOSSE VALERIE V2 4 04:02:11 TCHIMBE RAID F
100 139 OZIER MICKAEL SE 29 04:07:12 M
101 56 COLOTROC JEAN PHILIPPE V2 15 04:07:24 M
102 132 DELABIE PIERRE SE 30 04:07:44 M
103 123 FOURNET BENOIT SE 31 04:07:45 M
104 61 PIGNOL JEROME V1 35 04:08:51 TCHIMBE RAID M
105 65 BOZONNET FLORENCE V2 5 04:09:32 CLUB MANIKOU F
106 78 COCHARD EMMANUELLE V1 9 04:13:42 F
107 42 HONORE YANN V1 36 04:14:53 TCHIMBE RAID M
108 16 BOURGEOIS LOIC SE 32 04:17:16 M
109 146 LEMERY SIMON SE 33 04:17:27 GOLDEN STAR M
110 49 DOUVILLE KeVIN JU 1 04:19:39 LES BAROUDEURS MARTINIQUE M
111 54 RAPHA DANY V3 1 04:22:35 MAIRIE SPORTIVE / TLT972 F
112 51 CHANE-FOC BRIGITTE V2 6 04:25:55 F
113 32 SANCHO PEGGY V1 10 04:26:21 F
114 19 MALU DAVID SE 34 04:42:33 M
115 63 TOUCHAIN ERWAN SE 35 04:43:26 TCHIMBERAID M
116 118 BRIGITTE MARIE-DENISE V2 7 04:44:42 F
117 29 SEBASTIEN JOSE WASHINGTON V2 16 04:47:28 M
118 2 GRADUEL ISABELLE V2 8 04:50:59 MANIKOU TR F
119 66 JUSTE JEAN-MARC SE 36 04:58:20 M
120 93 CAZENAVE GILLES SE 37 05:01:35 TCHIMBE RAID M
121 135 NAUDIN DOMINIQUE V3 2 05:03:06 MANIKOU F
122 92 DI GERONIMO BENEDICTE V1 11 05:09:51 F
123 145 DIALLO JUDITH V1 12 05:09:59 SAM HORIZON F
124 131 NOIRAN YOHANN SE 38 05:13:18 M
125 9 COUFFE VALERIE SE 6 05:14:06 CLUB MANIKOU F
126 31 CLAVEAU ELSA V1 13 05:14:16 F
127 79 BIGAND NATHALIE V1 14 05:16:23 F